Time;durP1;ratioP1;P1;durP2;ratioP2;P2;SDS_P1;SDS_P2;PMS_P1;PMS_P2;Temp;Humidity;BMP_temperature;BMP_pressure;BME280_temperature;BME280_humidity;BME280_pressure;Samples;Min_cycle;Max_cycle;Signal;HPM_P1;HPM_P2
2022/08/20 00:00:24;;;;;;;4.95;3.22;;;;;;;21.34;100.00;99551.98;1628085;86;22330;-60
2022/08/20 00:02:56;;;;;;;3.77;3.30;;;;;;;21.27;100.00;99555.34;1620095;85;21655;-60
2022/08/20 00:05:31;;;;;;;3.05;2.80;;;;;;;21.16;100.00;99562.96;1614815;85;21564;-60
2022/08/20 00:07:59;;;;;;;3.27;2.83;;;;;;;21.09;100.00;99557.80;1617275;87;21493;-60
2022/08/20 00:10:28;;;;;;;3.17;2.98;;;;;;;21.07;100.00;99557.09;1629663;87;21510;-60
2022/08/20 00:12:55;;;;;;;3.22;2.87;;;;;;;21.02;100.00;99556.64;1636688;85;21906;-60
2022/08/20 00:15:27;;;;;;;3.20;2.95;;;;;;;20.91;100.00;99552.25;1619292;87;21679;-59
2022/08/20 00:17:54;;;;;;;3.17;2.83;;;;;;;20.87;100.00;99554.34;1627569;86;21072;-60
2022/08/20 00:20:24;;;;;;;3.85;2.83;;;;;;;20.74;100.00;99554.56;1617696;87;21537;-60
2022/08/20 00:22:50;;;;;;;7.10;2.70;;;;;;;20.71;100.00;99554.81;1627034;86;21548;-60
2022/08/20 00:25:17;;;;;;;3.05;2.75;;;;;;;20.71;100.00;99561.50;1630064;86;22037;-60
2022/08/20 00:27:44;;;;;;;3.98;2.85;;;;;;;20.71;100.00;99561.50;1627108;85;20946;-60
2022/08/20 00:30:33;;;;;;;4.30;3.22;;;;;;;20.69;100.00;99569.30;1627101;85;21533;-60
2022/08/20 00:33:06;;;;;;;3.60;3.30;;;;;;;20.60;100.00;99567.75;1659365;85;21489;-60
2022/08/20 00:35:35;;;;;;;4.90;3.30;;;;;;;20.51;100.00;99572.55;1630302;86;21643;-60
2022/08/20 00:38:02;;;;;;;4.72;3.40;;;;;;;20.43;100.00;99573.66;1623472;87;21863;-59
2022/08/20 00:40:40;;;;;;;5.45;3.15;;;;;;;20.37;100.00;99579.03;1659154;85;21560;-60
2022/08/20 00:43:28;;;;;;;4.28;3.25;;;;;;;20.35;100.00;99585.00;1657626;85;21020;-60
2022/08/20 00:45:55;;;;;;;;;;;;;;;20.41;100.00;99590.31;1637241;85;21603;-60
2022/08/20 00:48:24;;;;;;;4.42;3.45;;;;;;;20.40;100.00;99596.64;1660153;84;20197;-60
2022/08/20 00:50:50;;;;;;;5.80;2.90;;;;;;;20.34;100.00;99594.00;1661647;84;22115;-60
2022/08/20 00:53:18;;;;;;;3.50;3.20;;;;;;;20.34;100.00;99594.00;1661649;84;21532;-61
2022/08/20 00:55:44;;;;;;;6.12;2.80;;;;;;;20.38;100.00;99598.10;1661668;84;21539;-60
2022/08/20 00:58:11;;;;;;;4.08;3.27;;;;;;;20.40;100.00;99586.80;1661664;85;21521;-61
2022/08/20 01:00:41;;;;;;;4.55;3.20;;;;;;;20.41;100.00;99586.30;1661720;85;21535;-61
2022/08/20 01:03:10;;;;;;;6.05;2.72;;;;;;;20.30;100.00;99579.19;1659717;84;22319;-60
2022/08/20 01:05:40;;;;;;;4.72;3.20;;;;;;;20.30;100.00;99579.19;1657418;84;21565;-61
2022/08/20 01:08:06;;;;;;;5.85;2.77;;;;;;;20.19;100.00;99582.78;1659549;85;21654;-61
2022/08/20 01:10:36;;;;;;;4.78;2.83;;;;;;;20.21;100.00;99580.83;1661967;85;21480;-61
2022/08/20 01:13:10;;;;;;;3.08;2.77;;;;;;;20.22;100.00;99579.84;1661253;85;21620;-60
2022/08/20 01:15:40;;;;;;;3.87;3.20;;;;;;;20.25;100.00;99573.87;1661921;84;21607;-61
2022/08/20 01:18:12;;;;;;;4.08;3.08;;;;;;;20.22;100.00;99577.17;1658697;84;21617;-61
2022/08/20 01:20:53;;;;;;;4.62;3.12;;;;;;;20.09;100.00;99573.00;1658941;85;21064;-59
2022/08/20 01:23:59;;;;;;;6.17;3.50;;;;;;;20.09;100.00;99573.00;1659408;85;21588;-60
2022/08/20 01:26:39;;;;;;;3.50;3.20;;;;;;;20.02;100.00;99565.98;1662359;84;21021;-61
2022/08/20 01:29:17;;;;;;;8.23;3.25;;;;;;;19.98;100.00;99561.38;1661651;85;21532;-60
2022/08/20 01:31:44;;;;;;;5.22;4.10;;;;;;;19.99;100.00;99562.25;1661709;85;21568;-60
2022/08/20 01:34:13;;;;;;;5.90;3.27;;;;;;;19.98;100.00;99561.88;1661655;85;21024;-60
2022/08/20 01:36:44;;;;;;;3.85;3.55;;;;;;;19.93;100.00;99568.08;1662043;84;21575;-60
2022/08/20 01:39:14;;;;;;;3.85;3.30;;;;;;;19.86;100.00;99565.58;1665640;83;21535;-61
2022/08/20 01:42:08;;;;;;;4.87;3.75;;;;;;;19.84;100.00;99565.70;1661921;84;21780;-61
2022/08/20 01:44:36;;;;;;;3.77;2.92;;;;;;;19.93;100.00;99566.74;1658591;84;21474;-61
2022/08/20 01:47:19;;;;;;;3.45;3.12;;;;;;;19.93;100.00;99566.74;1661610;85;21048;-60
2022/08/20 01:49:53;;;;;;;3.87;3.47;;;;;;;19.93;100.00;99568.95;1661715;84;21544;-60
2022/08/20 01:52:34;;;;;;;5.40;3.62;;;;;;;19.93;100.00;99565.41;1661870;85;21575;-60
2022/08/20 01:55:01;;;;;;;5.67;3.30;;;;;;;19.87;100.00;99564.59;1654959;84;21751;-60
2022/08/20 01:57:28;;;;;;;6.20;3.50;;;;;;;19.86;100.00;99568.25;1659519;85;21028;-65
2022/08/20 01:59:55;;;;;;;4.62;3.10;;;;;;;19.87;100.00;99565.92;1661904;85;21528;-60
2022/08/20 02:02:23;;;;;;;4.95;3.30;;;;;;;19.90;100.00;99563.02;1661754;85;21998;-61
2022/08/20 02:04:50;;;;;;;4.00;3.20;;;;;;;19.93;100.00;99565.41;1662406;84;21481;-60
2022/08/20 02:07:20;;;;;;;4.28;3.37;;;;;;;19.87;100.00;99559.26;1663462;84;21811;-60
2022/08/20 02:09:48;;;;;;;6.15;3.37;;;;;;;19.83;100.00;99565.33;1661775;85;21623;-60
2022/08/20 02:12:15;;;;;;;10.13;3.67;;;;;;;19.80;100.00;99577.61;1661030;84;21548;-61
2022/08/20 02:14:44;;;;;;;4.93;3.50;;;;;;;19.80;100.00;99574.45;1658292;85;21586;-60
2022/08/20 02:17:12;;;;;;;6.25;3.37;;;;;;;19.83;100.00;99574.20;1627668;86;22008;-61
2022/08/20 02:19:46;;;;;;;5.97;3.05;;;;;;;19.84;100.00;99572.38;1659169;86;22209;-60
2022/08/20 02:22:24;;;;;;;7.37;3.75;;;;;;;19.84;100.00;99583.05;1630044;87;21615;-61
2022/08/20 02:24:51;;;;;;;4.28;3.50;;;;;;;19.80;100.00;99573.61;1658173;84;25852;-61
2022/08/20 02:27:17;;;;;;;3.40;3.10;;;;;;;19.77;100.00;99573.35;1628634;86;21485;-61
2022/08/20 02:29:45;;;;;;;5.92;3.20;;;;;;;19.80;100.00;99564.27;1634375;86;21609;-62
2022/08/20 02:32:12;;;;;;;4.58;3.40;;;;;;;19.79;100.00;99568.73;1636596;85;21809;-61
2022/08/20 02:34:38;;;;;;;4.40;3.65;;;;;;;19.81;100.00;99561.95;1634749;87;21666;-61
2022/08/20 02:37:05;;;;;;;3.83;3.30;;;;;;;19.76;100.00;99557.00;1637936;85;21762;-61
2022/08/20 02:39:32;;;;;;;6.47;3.42;;;;;;;19.77;100.00;99552.02;1636821;85;21490;-61
2022/08/20 02:41:59;;;;;;;3.60;3.30;;;;;;;19.77;100.00;99552.02;1656646;86;21450;-61
2022/08/20 02:44:25;;;;;;;3.75;3.35;;;;;;;19.81;100.00;99551.27;1630245;87;21465;-61
2022/08/20 02:46:52;;;;;;;4.03;3.55;;;;;;;19.82;100.00;99551.16;1629545;87;21530;-61
2022/08/20 02:49:18;;;;;;;3.98;3.65;;;;;;;19.83;100.00;99550.66;1659342;86;21437;-61
2022/08/20 02:51:45;;;;;;;4.05;3.62;;;;;;;19.81;100.00;99553.94;1630937;86;21426;-61
2022/08/20 02:54:12;;;;;;;4.00;3.70;;;;;;;19.68;100.00;99546.56;1628935;86;21001;-61
2022/08/20 02:56:39;;;;;;;8.37;4.00;;;;;;;19.68;100.00;99546.56;1628920;87;22264;-62
2022/08/20 02:59:05;;;;;;;5.65;3.72;;;;;;;19.71;100.00;99548.49;1658793;85;21553;-61
2022/08/20 03:01:32;;;;;;;10.93;4.12;;;;;;;19.74;100.00;99549.62;1630539;86;21465;-61
2022/08/20 03:03:59;;;;;;;5.60;3.90;;;;;;;19.74;100.00;99549.62;1658947;84;21517;-61
2022/08/20 03:06:26;;;;;;;5.47;3.63;;;;;;;19.73;100.00;99553.73;1655101;86;21525;-61
2022/08/20 03:08:53;;;;;;;4.35;3.55;;;;;;;19.68;100.00;99552.73;1661866;85;21757;-61
2022/08/20 03:11:20;;;;;;;7.03;4.10;;;;;;;19.76;100.00;99553.47;1668847;84;21677;-61
2022/08/20 03:13:47;;;;;;;5.67;3.93;;;;;;;19.76;100.00;99553.47;1631895;86;21461;-63
2022/08/20 03:16:13;;;;;;;3.72;3.42;;;;;;;19.74;100.00;99550.08;1659620;85;21524;-60
2022/08/20 03:18:43;;;;;;;5.53;3.35;;;;;;;19.79;100.00;99554.56;1631735;86;21635;-61
2022/08/20 03:21:10;;;;;;;5.22;3.60;;;;;;;19.82;100.00;99561.83;1653204;84;21923;-61
2022/08/20 03:23:37;;;;;;;4.27;3.80;;;;;;;19.83;100.00;99565.33;1658938;85;21533;-61
2022/08/20 03:26:06;;;;;;;4.42;3.40;;;;;;;19.81;100.00;99561.95;1659319;84;21563;-61
2022/08/20 03:28:33;;;;;;;3.67;3.37;;;;;;;19.82;100.00;99563.16;1659116;84;21405;-61
2022/08/20 03:30:59;;;;;;;5.10;3.17;;;;;;;19.82;100.00;99564.48;1657700;86;21493;-61
2022/08/20 03:33:27;;;;;;;6.30;3.83;;;;;;;19.85;100.00;99555.38;1660107;84;21842;-61
2022/08/20 03:35:54;;;;;;;;;;;;;;;19.87;100.00;99554.76;1661009;84;21552;-61
2022/08/20 03:38:22;;;;;;;4.00;3.70;;;;;;;19.83;100.00;99558.66;1658155;84;20446;-62
2022/08/20 03:40:48;;;;;;;4.25;3.85;;;;;;;19.75;100.00;99549.96;1630722;87;21033;-61
2022/08/20 03:43:15;;;;;;;6.58;4.10;;;;;;;19.78;100.00;99559.55;1629922;86;21421;-61
2022/08/20 03:45:43;;;;;;;10.08;4.30;;;;;;;19.78;100.00;99559.55;1657244;85;21951;-61
2022/08/20 03:48:13;;;;;;;;;;;;;;;19.85;100.00;99571.38;1635003;86;21461;-60
2022/08/20 03:52:56;;;;;;;4.53;4.12;;;;;;;19.38;100.00;99592.95;1799395;78;23227;-59
2022/08/20 03:55:23;;;;;;;7.33;4.17;;;;;;;19.90;100.00;99574.52;1759097;80;21573;-59
2022/08/20 03:57:54;;;;;;;4.65;4.25;;;;;;;19.90;100.00;99574.52;1753275;80;22034;-59
2022/08/20 04:00:25;;;;;;;4.95;4.20;;;;;;;19.99;100.00;99571.59;1767217;80;21434;-60
2022/08/20 04:02:55;;;;;;;7.00;6.40;;;;;;;19.99;100.00;99571.59;1769046;80;20954;-60
2022/08/20 04:05:22;;;;;;;5.40;4.90;;;;;;;20.02;100.00;99576.66;1775756;80;21463;-60
2022/08/20 04:07:49;;;;;;;6.97;6.00;;;;;;;20.13;100.00;99575.77;1771114;80;21422;-60
2022/08/20 04:10:16;;;;;;;7.97;6.05;;;;;;;20.18;100.00;99579.75;1770294;80;21941;-62
2022/08/20 04:12:43;;;;;;;;;;;;;;;20.27;100.00;99578.14;1771348;80;21135;-59
2022/08/20 04:15:14;;;;;;;8.03;5.80;;;;;;;20.35;100.00;99577.48;1778610;80;20412;-60
2022/08/20 04:17:43;;;;;;;6.20;5.67;;;;;;;20.35;100.00;99578.32;1770635;80;21572;-62
2022/08/20 04:20:11;;;;;;;6.50;5.70;;;;;;;20.38;100.00;99586.08;1772582;80;21559;-60
2022/08/20 04:22:39;;;;;;;8.65;6.97;;;;;;;20.46;100.00;99586.77;1756570;80;21793;-60
2022/08/20 04:25:09;;;;;;;6.53;5.70;;;;;;;20.48;100.00;99584.81;1776409;80;20997;-60
2022/08/20 04:27:37;;;;;;;5.72;5.25;;;;;;;20.48;100.00;99584.81;1777871;80;21569;-59
2022/08/20 04:30:06;;;;;;;9.98;5.50;;;;;;;20.49;100.00;99577.64;1762814;80;21477;-59
2022/08/20 04:32:35;;;;;;;6.00;5.50;;;;;;;20.52;100.00;99585.40;1763033;80;21462;-60
2022/08/20 04:35:04;;;;;;;5.95;5.30;;;;;;;20.56;100.00;99582.81;1766294;80;21934;-59
2022/08/20 04:37:32;;;;;;;6.20;5.58;;;;;;;20.65;100.00;99581.23;1771628;80;21403;-61
2022/08/20 04:42:50;;;;;;;6.58;5.97;;;;;;;20.88;100.00;99577.89;1762821;80;21612;-59
2022/08/20 04:45:17;;;;;;;8.70;6.17;;;;;;;20.94;100.00;99578.69;1774865;80;21726;-60
2022/08/20 04:47:45;;;;;;;6.42;5.92;;;;;;;21.00;100.00;99571.00;1763199;80;21758;-60
2022/08/20 04:50:12;;;;;;;7.58;6.42;;;;;;;21.10;100.00;99574.20;1755802;80;24362;-60
2022/08/20 04:52:39;;;;;;;6.72;5.83;;;;;;;21.22;100.00;99577.12;1735269;80;21544;-60
2022/08/20 04:55:06;;;;;;;9.03;6.45;;;;;;;21.44;100.00;99565.40;1739736;81;20953;-60
2022/08/20 04:57:36;;;;;;;7.35;6.65;;;;;;;21.57;100.00;99565.98;1735086;81;21192;-60
2022/08/20 05:00:08;;;;;;;6.78;6.20;;;;;;;21.57;100.00;99565.98;1735568;81;21788;-60
2022/08/20 05:02:36;;;;;;;7.87;6.65;;;;;;;21.68;100.00;99561.48;1735505;81;21580;-59
2022/08/20 05:05:07;;;;;;;5.90;5.37;;;;;;;21.79;100.00;99561.35;1728887;82;21473;-59
2022/08/20 05:07:41;;;;;;;5.87;5.37;;;;;;;21.89;100.00;99558.70;1738168;82;21549;-60
2022/08/20 05:10:09;;;;;;;6.05;5.45;;;;;;;22.01;100.00;99558.06;1728587;82;21527;-60
2022/08/20 05:12:36;;;;;;;6.65;5.95;;;;;;;22.10;100.00;99552.70;1734506;81;21735;-59
2022/08/20 05:15:04;;;;;;;8.48;5.67;;;;;;;22.10;100.00;99552.70;1740314;82;21420;-59
2022/08/20 05:17:31;;;;;;;7.65;5.78;;;;;;;22.18;100.00;99549.81;1740344;81;21551;-59
2022/08/20 05:19:59;;;;;;;7.65;5.60;;;;;;;22.24;100.00;99547.39;1729917;82;21469;-60
2022/08/20 05:22:27;;;;;;;6.33;5.35;;;;;;;22.29;100.00;99539.81;1740192;81;26874;-60
2022/08/20 05:24:55;;;;;;;5.17;4.78;;;;;;;22.37;100.00;99536.42;1738889;81;22032;-59
2022/08/20 05:27:25;;;;;;;6.10;5.60;;;;;;;22.36;100.00;99536.09;1738755;81;21564;-59
2022/08/20 05:29:52;;;;;;;8.28;5.55;;;;;;;22.38;100.00;99534.58;1734324;81;21162;-59
2022/08/20 05:32:19;;;;;;;4.75;4.40;;;;;;;22.44;100.00;99525.98;1733645;82;21503;-59
2022/08/20 05:34:45;;;;;;;7.42;5.12;;;;;;;22.50;100.00;99523.56;1739326;82;20988;-59
2022/08/20 05:37:13;;;;;;;6.50;4.45;;;;;;;22.59;100.00;99519.17;1736372;81;21921;-60
2022/08/20 05:39:40;;;;;;;6.00;4.70;;;;;;;22.71;100.00;99512.63;1730099;81;21460;-59
2022/08/20 05:42:07;;;;;;;6.75;4.40;;;;;;;22.84;100.00;99514.98;1729296;81;21576;-60
2022/08/20 05:44:35;;;;;;;4.55;4.15;;;;;;;22.93;100.00;99503.38;1738761;81;21533;-59
2022/08/20 05:47:03;;;;;;;4.65;4.22;;;;;;;23.00;100.00;99502.30;1738620;81;21626;-60
2022/08/20 05:49:30;;;;;;;5.05;4.58;;;;;;;23.00;100.00;99502.30;1734451;82;21815;-60
2022/08/20 05:51:58;;;;;;;6.10;4.60;;;;;;;23.03;100.00;99508.71;1738518;80;21585;-59
2022/08/20 05:54:24;;;;;;;7.12;6.22;;;;;;;23.02;100.00;99516.39;1735568;80;21018;-60
2022/08/20 05:56:51;;;;;;;5.58;5.05;;;;;;;23.04;100.00;99511.75;1736330;81;21531;-60
2022/08/20 05:59:19;;;;;;;5.42;4.90;;;;;;;23.06;100.00;99516.47;1739490;81;21521;-61
2022/08/20 06:01:46;;;;;;;6.87;6.28;;;;;;;23.10;100.00;99515.17;1738150;80;21852;-60
2022/08/20 06:04:30;;;;;;;5.90;4.95;;;;;;;23.19;100.00;99508.55;1741527;81;21568;-61
2022/08/20 06:06:59;;;;;;;4.60;4.12;;;;;;;23.27;100.00;99504.13;1737449;82;21550;-60
2022/08/20 06:09:25;;;;;;;4.58;4.28;;;;;;;23.37;100.00;99501.38;1738652;81;21530;-61
2022/08/20 06:11:52;;;;;;;7.72;5.17;;;;;;;23.46;100.00;99501.82;1734498;81;21454;-60
2022/08/20 06:14:19;;;;;;;4.67;4.28;;;;;;;23.61;100.00;99508.02;1733222;81;21775;-60
2022/08/20 06:16:47;;;;;;;7.58;4.85;;;;;;;23.61;100.00;99508.02;1739060;81;21553;-61
2022/08/20 06:19:13;;;;;;;10.05;5.70;;;;;;;23.62;100.00;99514.58;1738018;82;21563;-60
2022/08/20 06:21:40;;;;;;;5.67;4.85;;;;;;;23.48;100.00;99514.58;1741150;81;21014;-60
2022/08/20 06:24:07;;;;;;;5.45;4.70;;;;;;;23.39;100.00;99511.97;1736042;80;21572;-61
2022/08/20 06:26:33;;;;;;;4.78;4.37;;;;;;;23.45;100.00;99516.25;1730486;81;21927;-61
2022/08/20 06:29:02;;;;;;;6.78;3.62;;;;;;;23.52;100.00;99520.48;1737670;80;21041;-60
2022/08/20 06:31:29;;;;;;;5.17;3.00;;;;;;;23.56;100.00;99522.38;1732885;80;21040;-60
2022/08/20 06:33:55;;;;;;;6.20;3.02;;;;;;;23.63;100.00;99516.75;1734025;82;21554;-60
2022/08/20 06:36:23;;;;;;;4.30;3.53;;;;;;;23.63;100.00;99525.64;1734393;82;21586;-60
2022/08/20 06:38:50;;;;;;;3.90;3.35;;;;;;;23.66;100.00;99536.58;1732620;80;26958;-60
2022/08/20 06:41:17;;;;;;;3.40;3.20;;;;;;;23.75;100.00;99528.92;1724156;80;21823;-59
2022/08/20 06:43:44;;;;;;;5.12;3.20;;;;;;;23.76;100.00;99528.45;1738257;82;20994;-60
2022/08/20 06:46:11;;;;;;;3.42;3.12;;;;;;;23.84;100.00;99524.02;1736456;82;21423;-60
2022/08/20 06:48:38;;;;;;;;;;;;;;;23.88;99.52;99523.21;1733101;80;21464;-61
2022/08/20 06:51:05;;;;;;;5.95;3.37;;;;;;;23.99;97.78;99513.58;1734173;81;21951;-60
2022/08/20 06:53:32;;;;;;;3.75;3.45;;;;;;;24.10;97.45;99511.16;1727605;81;21590;-60
2022/08/20 06:55:58;;;;;;;3.35;3.10;;;;;;;24.20;97.05;99511.89;1720521;82;21530;-60
2022/08/20 06:58:25;;;;;;;3.42;3.12;;;;;;;24.28;97.05;99514.66;1718567;81;20998;-60
2022/08/20 07:00:52;;;;;;;2.85;2.55;;;;;;;24.35;96.06;99511.33;1714212;82;21438;-58
2022/08/20 07:03:19;;;;;;;2.95;2.75;;;;;;;24.44;95.95;99507.70;1713259;82;21903;-60
2022/08/20 07:05:45;;;;;;;5.17;3.10;;;;;;;24.60;95.67;99512.34;1727875;81;21680;-60
2022/08/20 07:08:15;;;;;;;3.12;2.87;;;;;;;24.82;95.14;99509.62;1723695;82;20966;-60
2022/08/20 07:10:43;;;;;;;3.02;2.83;;;;;;;25.01;94.29;99505.83;1727188;82;21015;-59
2022/08/20 07:13:11;;;;;;;2.83;2.52;;;;;;;25.12;92.47;99508.23;1731370;82;21471;-60
2022/08/20 07:15:39;;;;;;;4.50;2.80;;;;;;;25.13;89.15;99499.64;1686436;83;21601;-60
2022/08/20 07:18:07;;;;;;;2.70;2.50;;;;;;;25.07;88.10;99501.14;1664772;85;21523;-60
2022/08/20 07:20:35;;;;;;;4.87;2.20;;;;;;;25.07;88.84;99509.20;1689445;83;21590;-59
2022/08/20 07:23:02;;;;;;;2.77;2.55;;;;;;;25.08;88.32;99506.04;1680983;84;21705;-60
2022/08/20 07:25:29;;;;;;;4.03;2.52;;;;;;;25.09;86.43;99499.64;1663718;84;21571;-60
2022/08/20 07:28:03;;;;;;;2.37;2.27;;;;;;;25.15;86.54;99507.91;1650570;85;21969;-60
2022/08/20 07:33:15;;;;;;;2.50;2.33;;;;;;;25.33;86.35;99505.63;1692233;83;21462;-62
2022/08/20 07:35:42;;;;;;;2.53;2.27;;;;;;;25.51;86.21;99499.63;1671480;84;21043;-62
2022/08/20 07:38:23;;;;;;;2.80;2.08;;;;;;;25.64;84.80;99496.45;1675487;84;21928;-61
2022/08/20 07:40:47;;;;;;;;;;;;;;;25.84;84.20;99499.64;1672222;84;21920;-60
2022/08/20 07:43:15;;;;;;;;;;;;;;;26.01;81.11;99491.96;1677197;84;20565;-60
2022/08/20 07:45:42;;;;;;;2.22;2.00;;;;;;;26.05;80.65;99491.13;1680865;84;20428;-59
2022/08/20 07:48:11;;;;;;;1.80;1.70;;;;;;;26.08;80.65;99497.49;1682386;84;21530;-59
2022/08/20 07:50:38;;;;;;;2.42;1.92;;;;;;;26.07;79.90;99493.14;1677994;84;21597;-60
2022/08/20 07:53:05;;;;;;;2.00;1.90;;;;;;;26.07;79.35;99490.44;1679921;83;21882;-59
2022/08/20 07:55:31;;;;;;;1.82;1.72;;;;;;;26.07;78.33;99484.19;1706315;83;22178;-60
2022/08/20 07:58:05;;;;;;;2.00;1.80;;;;;;;26.05;78.69;99490.25;1697107;83;21539;-59
2022/08/20 08:00:32;;;;;;;2.10;1.90;;;;;;;26.02;79.51;99487.41;1679611;83;21572;-60
2022/08/20 08:02:59;;;;;;;2.30;2.10;;;;;;;25.94;78.88;99482.87;1700817;83;21534;-60
2022/08/20 08:05:25;;;;;;;1.60;1.50;;;;;;;25.87;78.26;99480.98;1701525;83;21431;-60
2022/08/20 08:07:52;;;;;;;2.40;2.10;;;;;;;25.82;78.96;99485.52;1699009;83;21448;-60
2022/08/20 08:10:21;;;;;;;1.62;1.52;;;;;;;25.79;78.80;99487.22;1701748;83;20998;-60
2022/08/20 08:12:52;;;;;;;2.37;1.70;;;;;;;25.70;77.24;99477.45;1697192;83;21522;-60
2022/08/20 08:15:22;;;;;;;1.85;1.72;;;;;;;25.63;77.66;99478.61;1705939;83;21566;-59
2022/08/20 08:17:50;;;;;;;1.87;1.70;;;;;;;25.55;78.52;99471.36;1693651;83;21739;-64
2022/08/20 08:20:18;;;;;;;5.90;2.30;;;;;;;25.55;80.00;99471.88;1706623;83;21450;-61
2022/08/20 08:22:44;;;;;;;2.67;1.98;;;;;;;25.61;80.05;99472.03;1681171;83;21013;-60
2022/08/20 08:25:11;;;;;;;2.20;1.90;;;;;;;25.68;80.04;99472.22;1750138;80;21597;-62
2022/08/20 08:27:40;;;;;;;3.87;2.60;;;;;;;25.71;79.74;99474.59;1745951;80;21022;-61
2022/08/20 08:30:08;;;;;;;2.92;2.35;;;;;;;25.69;80.29;99473.89;1760029;80;21801;-61
2022/08/20 08:33:26;;;;;;;3.27;2.20;;;;;;;25.66;79.92;99470.72;1756293;80;21403;-62
2022/08/20 08:35:07;;;;;;;4.90;2.50;;;;;;;25.59;80.58;99471.36;1757362;80;21436;-61
2022/08/20 08:37:36;;;;;;;5.33;2.60;;;;;;;25.55;80.69;99471.36;1761745;80;21502;-61
2022/08/20 08:40:04;;;;;;;7.03;2.37;;;;;;;25.58;80.83;99463.45;1758941;80;21487;-61
2022/08/20 08:42:45;;;;;;;5.67;2.12;;;;;;;25.51;81.11;99465.15;1761268;80;22112;-61
2022/08/20 08:45:14;;;;;;;5.15;2.40;;;;;;;25.54;81.83;99471.53;1759137;80;21562;-61
2022/08/20 08:47:42;;;;;;;2.22;2.02;;;;;;;25.69;81.56;99472.55;1759779;80;21038;-61
2022/08/20 08:50:13;;;;;;;2.33;2.12;;;;;;;25.75;80.69;99452.19;1755022;80;21506;-60
2022/08/20 08:52:40;;;;;;;3.45;2.37;;;;;;;25.74;80.46;99462.13;1758942;80;21998;-60
2022/08/20 08:55:10;;;;;;;;;;;;;;;25.83;79.65;99462.98;1730274;82;21580;-60
2022/08/20 08:57:37;;;;;;;2.42;1.85;;;;;;;25.78;77.98;99460.77;1732277;81;20427;-60
2022/08/20 09:00:12;;;;;;;2.72;1.87;;;;;;;25.63;78.75;99461.11;1738784;81;21461;-60
2022/08/20 09:02:41;;;;;;;4.20;1.92;;;;;;;25.69;79.41;99463.63;1697287;82;21569;-60
2022/08/20 09:05:13;;;;;;;3.67;1.80;;;;;;;25.72;78.33;99464.14;1732422;80;21588;-60
2022/08/20 09:07:40;;;;;;;2.72;1.95;;;;;;;25.73;78.81;99460.94;1730975;82;21755;-60
2022/08/20 09:10:08;;;;;;;3.42;1.95;;;;;;;25.82;78.38;99459.93;1738939;82;21447;-60
2022/08/20 09:12:36;;;;;;;1.60;1.50;;;;;;;25.88;77.61;99456.59;1715412;81;21455;-61
2022/08/20 09:15:04;;;;;;;3.00;1.45;;;;;;;25.82;77.18;99458.11;1737510;81;21474;-61
2022/08/20 09:17:31;;;;;;;3.08;1.62;;;;;;;25.84;78.23;99461.95;1731360;81;21598;-61
2022/08/20 09:19:57;;;;;;;1.60;1.50;;;;;;;25.93;78.03;99458.28;1712476;82;21577;-61
2022/08/20 09:22:26;;;;;;;2.27;1.60;;;;;;;26.11;77.26;99459.45;1725040;82;21591;-61
2022/08/20 09:24:53;;;;;;;3.80;1.50;;;;;;;26.29;76.07;99463.80;1729386;82;21636;-60
2022/08/20 09:27:19;;;;;;;1.60;1.50;;;;;;;26.44;75.78;99459.89;1723767;81;21085;-59
2022/08/20 09:29:46;;;;;;;2.77;1.70;;;;;;;26.55;74.63;99461.70;1733656;82;21553;-59
2022/08/20 09:32:18;;;;;;;1.80;1.70;;;;;;;26.63;73.90;99462.73;1731645;82;22069;-59
2022/08/20 09:34:50;;;;;;;1.57;1.47;;;;;;;26.69;72.04;99465.58;1706498;82;21604;-59
2022/08/20 09:37:17;;;;;;;1.20;1.20;;;;;;;26.76;71.31;99457.09;1732818;82;21557;-58
2022/08/20 09:39:43;;;;;;;4.78;1.50;;;;;;;26.82;70.50;99451.52;1728388;82;21517;-59
2022/08/20 09:42:21;;;;;;;1.75;1.65;;;;;;;26.85;69.41;99454.39;1726394;82;21466;-59
2022/08/20 09:44:47;;;;;;;1.77;1.57;;;;;;;26.84;68.32;99450.83;1737761;81;21729;-59
2022/08/20 09:47:16;;;;;;;3.15;1.32;;;;;;;26.93;70.24;99451.13;1729314;82;21486;-62
2022/08/20 09:49:43;;;;;;;4.80;1.80;;;;;;;26.99;67.90;99454.48;1733505;82;21511;-59
2022/08/20 09:52:19;;;;;;;1.50;1.22;;;;;;;27.00;67.88;99449.92;1734491;82;21563;-59
2022/08/20 09:54:45;;;;;;;1.35;1.25;;;;;;;27.03;68.75;99446.02;1735734;81;21558;-60
2022/08/20 09:57:12;;;;;;;3.58;1.60;;;;;;;26.98;67.05;99446.05;1733480;81;21533;-60
2022/08/20 09:59:39;;;;;;;1.57;1.42;;;;;;;27.03;66.82;99444.19;1733006;81;21027;-59
2022/08/20 10:02:05;;;;;;;2.22;1.42;;;;;;;27.07;67.57;99443.30;1732287;81;21491;-60
2022/08/20 10:04:32;;;;;;;2.40;1.50;;;;;;;27.13;66.10;99439.91;1729028;81;20978;-60
2022/08/20 10:06:58;;;;;;;3.42;1.30;;;;;;;27.16;67.34;99440.89;1728322;81;21624;-60
2022/08/20 10:09:25;;;;;;;2.37;1.42;;;;;;;27.24;66.99;99438.64;1736692;80;22606;-60
2022/08/20 10:11:52;;;;;;;3.58;1.40;;;;;;;27.37;66.96;99445.19;1737017;81;21530;-60
2022/08/20 10:14:18;;;;;;;1.40;1.30;;;;;;;27.43;66.43;99444.98;1737707;80;21554;-60
2022/08/20 10:16:45;;;;;;;2.93;1.37;;;;;;;27.50;65.10;99444.59;1738051;80;21604;-60
2022/08/20 10:19:12;;;;;;;2.20;1.82;;;;;;;27.57;65.20;99444.70;1741495;80;20977;-60
2022/08/20 10:21:39;;;;;;;4.15;1.70;;;;;;;27.62;64.27;99442.82;1733281;80;21716;-61
2022/08/20 10:24:06;;;;;;;2.98;1.55;;;;;;;27.67;64.95;99443.95;1731234;80;21501;-60
2022/08/20 10:26:34;;;;;;;2.00;1.30;;;;;;;27.69;64.52;99443.75;1729738;80;21558;-60
2022/08/20 10:29:00;;;;;;;2.95;1.30;;;;;;;27.73;65.08;99445.09;1708463;80;21637;-60
2022/08/20 10:31:27;;;;;;;3.42;1.62;;;;;;;27.73;64.03;99443.74;1735568;80;20928;-61
2022/08/20 10:33:55;;;;;;;5.55;1.45;;;;;;;27.78;63.97;99437.27;1733365;80;22037;-60
2022/08/20 10:36:22;;;;;;;4.22;1.50;;;;;;;27.78;63.39;99441.31;1732947;80;21656;-60
2022/08/20 10:38:48;;;;;;;2.50;1.60;;;;;;;27.77;63.51;99438.30;1728417;81;21544;-60
2022/08/20 10:41:15;;;;;;;3.30;1.80;;;;;;;27.82;63.77;99437.25;1734827;81;21430;-60
2022/08/20 10:43:41;;;;;;;2.55;1.62;;;;;;;27.83;62.50;99430.81;1732403;80;21553;-60
2022/08/20 10:46:08;;;;;;;1.60;1.50;;;;;;;27.91;62.82;99429.41;1738994;81;21610;-60
2022/08/20 10:48:35;;;;;;;2.25;1.67;;;;;;;28.03;62.06;99437.93;1732883;80;21490;-60
2022/08/20 10:51:02;;;;;;;2.67;1.40;;;;;;;27.96;62.82;99441.03;1729902;80;21637;-60
2022/08/20 10:53:28;;;;;;;2.63;1.70;;;;;;;27.96;62.85;99441.03;1746276;80;21624;-60
2022/08/20 10:55:56;;;;;;;161.32;45.43;;;;;;;28.07;63.25;99443.29;1739312;80;21856;-61
2022/08/20 10:58:24;;;;;;;8.88;3.75;;;;;;;28.06;80.27;99456.45;1752517;80;21668;-59
2022/08/20 11:00:50;;;;;;;5.97;1.55;;;;;;;28.10;66.85;99444.25;1752725;80;21573;-58
2022/08/20 11:03:18;;;;;;;5.55;1.52;;;;;;;28.02;64.34;99438.11;1755138;80;21555;-59
2022/08/20 11:05:45;;;;;;;2.75;1.62;;;;;;;27.88;61.94;99434.33;1759206;80;21471;-59
2022/08/20 11:08:12;;;;;;;1.50;1.40;;;;;;;27.89;64.04;99438.73;1750109;80;21542;-59
2022/08/20 11:10:39;;;;;;;3.83;1.90;;;;;;;28.03;63.76;99428.96;1755442;80;21820;-59
2022/08/20 11:13:06;;;;;;;2.62;1.70;;;;;;;28.13;63.51;99432.25;1752886;80;21051;-59
2022/08/20 11:15:36;;;;;;;1.60;1.50;;;;;;;28.18;63.37;99437.09;1748737;80;21463;-62
2022/08/20 11:18:04;;;;;;;1.77;1.67;;;;;;;28.15;62.41;99432.91;1753321;80;21554;-60
2022/08/20 11:20:32;;;;;;;5.08;1.55;;;;;;;28.12;62.81;99426.51;1754371;80;21309;-59
2022/08/20 11:22:59;;;;;;;2.00;1.80;;;;;;;28.15;62.44;99427.50;1756763;80;21784;-63
2022/08/20 11:25:26;;;;;;;2.58;1.67;;;;;;;28.11;63.14;99429.73;1744714;80;21132;-59
2022/08/20 11:27:54;;;;;;;3.62;1.55;;;;;;;28.15;63.62;99424.80;1742583;80;21612;-59
2022/08/20 11:30:28;;;;;;;2.20;1.62;;;;;;;28.22;63.40;99420.83;1754624;80;21510;-59
2022/08/20 11:32:54;;;;;;;3.15;1.40;;;;;;;28.22;62.28;99424.39;1688321;83;21665;-59
2022/08/20 11:35:22;;;;;;;1.95;1.40;;;;;;;28.22;62.05;99423.05;1750895;80;21787;-60
2022/08/20 11:37:50;;;;;;;2.87;1.50;;;;;;;28.14;60.83;99419.05;1754698;80;21513;-60
2022/08/20 11:40:17;;;;;;;3.52;1.77;;;;;;;28.05;61.17;99422.37;1746095;80;21404;-59
2022/08/20 11:42:46;;;;;;;1.85;1.75;;;;;;;27.93;62.59;99424.69;1750617;80;21377;-59